createdAt,value
2022-11-08T00:01:07.387Z,72.56
2022-11-08T00:03:35.779Z,72.50
2022-11-08T00:06:22.468Z,72.53
2022-11-08T00:09:09.113Z,72.43
2022-11-08T00:11:55.543Z,72.26
2022-11-08T00:14:24.137Z,72.41
2022-11-08T00:16:53.015Z,72.27
2022-11-08T00:19:21.458Z,72.37
2022-11-08T00:21:49.944Z,72.51
2022-11-08T00:24:18.883Z,72.54
2022-11-08T00:26:47.122Z,72.64
2022-11-08T00:29:15.628Z,72.41
2022-11-08T00:31:45.514Z,72.38
2022-11-08T00:34:14.243Z,72.38
2022-11-08T00:36:42.670Z,72.49
2022-11-08T00:39:11.566Z,72.25
2022-11-08T00:41:40.023Z,72.25
2022-11-08T00:44:08.955Z,72.16
2022-11-08T00:46:38.406Z,72.21
2022-11-08T00:49:07.239Z,72.24
2022-11-08T00:51:36.657Z,72.17
2022-11-08T00:54:07.877Z,72.12
2022-11-08T00:56:36.434Z,72.10
2022-11-08T00:59:04.772Z,72.12
2022-11-08T01:01:33.579Z,72.02
2022-11-08T01:04:02.291Z,72.04
2022-11-08T01:06:31.074Z,72.13
2022-11-08T01:08:59.778Z,72.07
2022-11-08T01:11:28.708Z,72.20
2022-11-08T01:13:59.683Z,72.26
2022-11-08T01:16:30.563Z,72.03
2022-11-08T01:18:59.668Z,72.25
2022-11-08T01:21:29.397Z,72.26
2022-11-08T01:23:58.077Z,72.14
2022-11-08T01:26:28.025Z,72.05
2022-11-08T01:28:57.913Z,72.19
2022-11-08T01:31:28.915Z,72.06
2022-11-08T01:33:58.480Z,72.26
2022-11-08T01:36:28.119Z,72.17
2022-11-08T01:38:57.323Z,72.25
2022-11-08T01:41:27.486Z,72.06
2022-11-08T01:43:57.953Z,72.20
2022-11-08T01:46:36.394Z,72.27
2022-11-08T01:49:20.379Z,72.12
2022-11-08T01:51:55.236Z,72.03
2022-11-08T01:54:31.387Z,71.98
2022-11-08T01:57:02.893Z,71.77
2022-11-08T01:59:32.631Z,71.94
2022-11-08T02:02:02.095Z,71.96
2022-11-08T02:04:30.879Z,71.90
2022-11-08T02:07:00.805Z,71.86
2022-11-08T02:09:30.668Z,72.11
2022-11-08T02:11:59.573Z,72.04
2022-11-08T02:14:28.439Z,71.94
2022-11-08T02:16:57.228Z,71.98
2022-11-08T02:19:36.684Z,71.88
2022-11-08T02:22:12.782Z,72.01
2022-11-08T02:24:41.986Z,72.02
2022-11-08T02:27:12.385Z,72.03
2022-11-08T02:29:40.970Z,71.82
2022-11-08T02:32:10.674Z,71.93
2022-11-08T02:34:43.642Z,71.86
2022-11-08T02:37:14.169Z,71.90
2022-11-08T02:39:43.544Z,71.98
2022-11-08T02:42:15.339Z,72.00
2022-11-08T02:44:43.913Z,71.89
2022-11-08T02:47:13.234Z,72.09
2022-11-08T02:49:41.627Z,72.09
2022-11-08T02:52:12.395Z,71.94
2022-11-08T02:54:40.666Z,71.76
2022-11-08T02:57:09.190Z,71.88
2022-11-08T02:59:38.877Z,71.80
2022-11-08T03:02:14.144Z,72.05
2022-11-08T03:04:42.695Z,71.98
2022-11-08T03:07:11.129Z,71.98
2022-11-08T03:09:39.568Z,72.09
2022-11-08T03:12:08.764Z,72.06
2022-11-08T03:14:37.315Z,72.11
2022-11-08T03:17:05.891Z,72.05
2022-11-08T03:19:34.671Z,72.11
2022-11-08T03:22:03.253Z,72.20
2022-11-08T03:24:31.704Z,71.74
2022-11-08T03:27:00.450Z,71.99
2022-11-08T03:29:28.886Z,71.86
2022-11-08T03:31:57.715Z,71.87
2022-11-08T03:34:26.354Z,71.87
2022-11-08T03:36:55.248Z,71.94
2022-11-08T03:39:23.628Z,71.82
2022-11-08T03:41:52.444Z,71.94
2022-11-08T03:44:21.092Z,71.73
2022-11-08T03:46:49.650Z,71.99
2022-11-08T03:49:18.004Z,71.85
2022-11-08T03:51:46.585Z,71.88
2022-11-08T03:54:15.935Z,71.95
2022-11-08T03:56:44.595Z,71.78
2022-11-08T03:59:13.486Z,72.06
2022-11-08T04:01:41.958Z,72.03
2022-11-08T04:04:10.560Z,71.79
2022-11-08T04:06:39.322Z,71.99
2022-11-08T04:09:08.074Z,71.85
2022-11-08T04:11:54.870Z,71.86
2022-11-08T04:14:41.779Z,71.86
2022-11-08T04:17:10.044Z,71.92
2022-11-08T04:19:57.366Z,72.04
2022-11-08T04:22:25.976Z,72.01
2022-11-08T04:24:54.774Z,71.86
2022-11-08T04:27:23.085Z,71.87
2022-11-08T04:29:51.416Z,71.90
2022-11-08T04:32:20.096Z,71.99
2022-11-08T04:34:48.468Z,72.07
2022-11-08T04:37:16.747Z,71.91
2022-11-08T04:39:45.393Z,72.05
2022-11-08T04:42:14.404Z,72.10
2022-11-08T04:44:42.716Z,72.21
2022-11-08T04:47:10.976Z,71.94
2022-11-08T04:49:39.224Z,71.95
2022-11-08T04:52:07.546Z,71.95
2022-11-08T04:54:37.239Z,71.98
2022-11-08T04:57:06.293Z,72.02
2022-11-08T04:59:34.795Z,72.05
2022-11-08T05:02:03.440Z,71.93
2022-11-08T05:04:32.193Z,71.97
2022-11-08T05:07:00.984Z,71.86
2022-11-08T05:09:29.326Z,71.79
2022-11-08T05:11:57.918Z,72.03
2022-11-08T05:14:26.364Z,72.10
2022-11-08T05:16:54.782Z,72.15
2022-11-08T05:19:40.439Z,72.17
2022-11-08T05:22:27.856Z,72.24
2022-11-08T05:24:56.770Z,72.34
2022-11-08T05:27:25.516Z,72.24
2022-11-08T05:29:54.025Z,72.30
2022-11-08T05:32:22.718Z,72.37
2022-11-08T05:34:50.987Z,72.27
2022-11-08T05:37:19.461Z,72.27
2022-11-08T05:39:47.872Z,72.33
2022-11-08T05:42:28.991Z,72.24
2022-11-08T05:44:57.690Z,72.43
2022-11-08T05:47:26.339Z,72.52
2022-11-08T05:49:54.930Z,72.48
2022-11-08T05:52:24.161Z,72.55
2022-11-08T05:55:17.526Z,72.65
2022-11-08T05:57:46.426Z,72.76
2022-11-08T06:00:16.384Z,72.86
2022-11-08T06:02:45.302Z,72.80
2022-11-08T06:05:13.735Z,72.93
2022-11-08T06:07:42.126Z,72.94
2022-11-08T06:10:12.029Z,73.05
2022-11-08T06:12:41.634Z,73.20
2022-11-08T06:15:11.242Z,73.08
2022-11-08T06:17:40.380Z,73.07
2022-11-08T06:20:12.793Z,73.00
2022-11-08T06:22:42.838Z,72.86
2022-11-08T06:25:11.923Z,72.87
2022-11-08T06:27:40.521Z,72.90
2022-11-08T06:30:11.546Z,72.86
2022-11-08T06:32:40.803Z,73.11
2022-11-08T06:35:10.265Z,73.50
2022-11-08T06:37:38.650Z,74.62
2022-11-08T06:40:10.835Z,74.68
2022-11-08T06:42:39.711Z,73.87
2022-11-08T06:45:12.138Z,71.93
2022-11-08T06:47:40.605Z,70.26
2022-11-08T06:50:09.641Z,69.23
2022-11-08T06:52:40.284Z,68.45
2022-11-08T06:55:09.301Z,68.24
2022-11-08T06:57:38.088Z,68.17
2022-11-08T07:00:09.202Z,67.96
2022-11-08T07:02:38.193Z,67.89
2022-11-08T07:05:08.254Z,68.03
2022-11-08T07:07:37.274Z,68.13
2022-11-08T07:10:08.140Z,68.17
2022-11-08T07:12:37.066Z,68.39
2022-11-08T07:15:07.000Z,68.50
2022-11-08T07:17:38.690Z,68.57
2022-11-08T07:20:10.319Z,68.69
2022-11-08T07:22:38.806Z,68.64
2022-11-08T07:25:09.204Z,68.88
2022-11-08T07:27:38.535Z,69.07
2022-11-08T07:30:09.364Z,69.15
2022-11-08T07:32:38.171Z,70.51
2022-11-08T07:35:08.861Z,71.17
2022-11-08T07:37:37.630Z,72.35
2022-11-08T07:40:09.140Z,72.38
2022-11-08T07:43:09.473Z,71.62
2022-11-08T07:45:29.583Z,70.39
2022-11-08T07:48:09.486Z,69.07
2022-11-08T07:50:43.111Z,66.71
2022-11-08T07:53:12.003Z,64.19
2022-11-08T07:55:41.514Z,62.25
2022-11-08T07:58:11.514Z,60.60
2022-11-08T08:00:42.346Z,58.53
2022-11-08T08:03:13.745Z,56.78
2022-11-08T08:05:45.100Z,55.83
2022-11-08T08:08:19.092Z,54.81
2022-11-08T08:10:48.513Z,53.40
2022-11-08T08:13:17.752Z,52.12
2022-11-08T08:15:48.573Z,51.09
2022-11-08T08:18:20.328Z,49.48
2022-11-08T08:20:48.734Z,47.93
2022-11-08T08:23:18.118Z,47.06
2022-11-08T08:25:46.888Z,46.54
2022-11-08T08:28:15.623Z,46.00
2022-11-08T08:30:44.032Z,45.05
2022-11-08T08:33:31.394Z,44.27
2022-11-08T08:36:01.583Z,43.37
2022-11-08T08:38:30.811Z,42.37
2022-11-08T08:41:00.587Z,42.00
2022-11-08T08:43:31.755Z,41.60
2022-11-08T08:46:01.020Z,41.01
2022-11-08T08:48:44.496Z,40.41
2022-11-08T08:51:13.299Z,39.60
2022-11-08T08:53:41.730Z,39.40
2022-11-08T08:56:10.946Z,39.30
2022-11-08T08:58:39.680Z,38.54
2022-11-08T09:03:58.667Z,37.66
2022-11-08T09:06:27.299Z,37.48
2022-11-08T09:08:55.985Z,37.56
2022-11-08T09:11:24.427Z,37.19
2022-11-08T09:13:52.990Z,36.43
2022-11-08T09:16:21.801Z,35.91
2022-11-08T09:18:50.300Z,35.93
2022-11-08T09:21:18.816Z,35.55
2022-11-08T09:23:47.542Z,35.36
2022-11-08T09:26:16.317Z,35.45
2022-11-08T09:28:45.051Z,35.44
2022-11-08T09:31:13.829Z,35.40
2022-11-08T09:33:42.992Z,35.37
2022-11-08T09:36:14.061Z,35.16
2022-11-08T09:38:42.835Z,34.59
2022-11-08T09:41:32.553Z,34.70
2022-11-08T09:44:18.110Z,34.25
2022-11-08T09:46:53.048Z,33.83
2022-11-08T09:49:32.310Z,34.23
2022-11-08T09:52:03.587Z,35.06
2022-11-08T09:54:39.130Z,35.60
2022-11-08T09:57:18.028Z,36.33
2022-11-08T09:59:50.988Z,36.37
2022-11-08T10:02:32.100Z,36.90
2022-11-08T10:05:04.799Z,37.59
2022-11-08T10:08:01.307Z,37.88
2022-11-08T10:10:40.527Z,38.36
2022-11-08T10:13:18.178Z,38.46
2022-11-08T10:16:00.820Z,38.84
2022-11-08T10:18:47.256Z,39.27
2022-11-08T10:21:31.931Z,39.93
2022-11-08T10:24:10.359Z,40.21
2022-11-08T10:26:44.752Z,40.55
2022-11-08T10:29:19.164Z,41.14
2022-11-08T10:31:52.949Z,41.30
2022-11-08T10:34:26.579Z,41.83
2022-11-08T10:37:03.293Z,42.31
2022-11-08T10:39:39.245Z,42.44
2022-11-08T10:42:13.626Z,42.44
2022-11-08T10:44:42.909Z,42.66
2022-11-08T10:47:19.533Z,42.92
2022-11-08T10:49:48.003Z,43.37
2022-11-08T10:52:20.315Z,43.63
2022-11-08T10:54:50.667Z,44.20
2022-11-08T10:57:26.692Z,44.50
2022-11-08T10:59:56.690Z,44.68
2022-11-08T11:02:29.485Z,44.75
2022-11-08T11:05:22.423Z,44.85
2022-11-08T11:08:02.159Z,45.20
2022-11-08T11:10:33.620Z,45.01
2022-11-08T11:13:06.447Z,45.29
2022-11-08T11:15:37.879Z,45.30
2022-11-08T11:18:24.528Z,45.76
2022-11-08T11:21:03.243Z,45.95
2022-11-08T11:23:37.902Z,46.05
2022-11-08T11:26:13.832Z,46.22
2022-11-08T11:29:14.576Z,46.36
2022-11-08T11:31:45.589Z,46.50
2022-11-08T11:34:31.849Z,46.71
2022-11-08T11:37:05.851Z,46.62
2022-11-08T11:39:43.860Z,46.75
2022-11-08T11:42:47.516Z,46.65
2022-11-08T11:45:17.807Z,46.64
2022-11-08T11:47:50.666Z,46.75
2022-11-08T11:50:29.591Z,47.00
2022-11-08T11:53:00.469Z,47.24
2022-11-08T11:55:42.213Z,47.49
2022-11-08T11:58:27.090Z,47.63
2022-11-08T12:01:02.109Z,47.73
2022-11-08T12:03:44.194Z,47.89
2022-11-08T12:06:28.243Z,47.83
2022-11-08T12:09:09.599Z,48.13
2022-11-08T12:11:48.013Z,48.12
2022-11-08T12:14:34.431Z,48.26
2022-11-08T12:17:17.123Z,48.39
2022-11-08T12:20:04.368Z,48.44
2022-11-08T12:23:17.669Z,48.64
2022-11-08T12:26:01.234Z,48.72
2022-11-08T12:28:51.128Z,49.08
2022-11-08T12:31:33.823Z,49.12
2022-11-08T12:34:24.412Z,48.99
2022-11-08T12:37:05.929Z,49.07
2022-11-08T12:39:47.120Z,49.18
2022-11-08T12:42:32.483Z,49.41
2022-11-08T12:45:22.764Z,49.59
2022-11-08T12:48:03.169Z,49.71
2022-11-08T12:50:45.569Z,49.81
2022-11-08T12:53:43.096Z,49.87
2022-11-08T12:56:21.237Z,49.81
2022-11-08T12:58:54.985Z,49.97
2022-11-08T13:01:30.180Z,50.00
2022-11-08T13:10:54.122Z,50.10
2022-11-08T13:13:33.048Z,50.18
2022-11-08T13:16:16.580Z,50.23
2022-11-08T13:18:50.086Z,50.65
2022-11-08T13:21:40.262Z,50.80
2022-11-08T13:24:45.305Z,50.89
2022-11-08T13:27:40.810Z,50.91
2022-11-08T13:30:37.415Z,51.03
2022-11-08T13:33:16.602Z,51.30
2022-11-08T13:35:58.401Z,51.45
2022-11-08T13:38:43.801Z,51.49
2022-11-08T13:41:17.894Z,51.76
2022-11-08T13:43:50.115Z,51.92
2022-11-08T13:46:49.359Z,51.99
2022-11-08T13:49:22.717Z,52.13
2022-11-08T13:52:30.792Z,52.16
2022-11-08T13:55:01.698Z,52.41
2022-11-08T13:58:00.745Z,52.49
2022-11-08T14:00:49.990Z,52.70
2022-11-08T14:03:58.507Z,52.77
2022-11-08T14:06:37.254Z,52.81
2022-11-08T14:09:22.399Z,52.90
2022-11-08T14:12:02.931Z,53.01
2022-11-08T14:14:50.046Z,53.06
2022-11-08T14:17:34.969Z,53.19
2022-11-08T14:20:27.886Z,53.33
2022-11-08T14:23:02.771Z,53.42
2022-11-08T14:25:38.834Z,53.60
2022-11-08T14:28:24.669Z,53.55
2022-11-08T14:30:58.922Z,53.70
2022-11-08T14:33:31.534Z,53.82
2022-11-08T14:36:07.437Z,53.86
2022-11-08T14:38:47.514Z,54.01
2022-11-08T14:41:22.042Z,54.07
2022-11-08T14:43:55.334Z,54.17
2022-11-08T14:46:30.991Z,54.30
2022-11-08T14:49:11.763Z,54.33
2022-11-08T14:51:44.956Z,54.43
2022-11-08T14:54:21.153Z,54.59
2022-11-08T14:56:52.310Z,54.65
2022-11-08T14:59:24.869Z,54.80
2022-11-08T15:02:01.383Z,54.95
2022-11-08T15:04:33.061Z,55.07
2022-11-08T15:07:04.124Z,55.21
2022-11-08T15:09:36.923Z,55.25
2022-11-08T15:12:15.933Z,55.34
2022-11-08T15:14:53.416Z,55.39
2022-11-08T15:17:36.745Z,55.57
2022-11-08T15:20:23.143Z,55.68
2022-11-08T15:22:56.712Z,55.96
2022-11-08T15:25:35.599Z,56.02
2022-11-08T15:28:23.291Z,56.18
2022-11-08T15:30:58.392Z,56.27
2022-11-08T15:33:34.711Z,56.24
2022-11-08T15:36:13.485Z,56.34
2022-11-08T15:38:49.073Z,56.50
2022-11-08T15:41:34.617Z,56.72
2022-11-08T15:44:17.175Z,56.87
2022-11-08T15:46:48.103Z,56.99
2022-11-08T15:49:25.033Z,57.13
2022-11-08T15:51:58.879Z,57.29
2022-11-08T15:54:30.757Z,57.46
2022-11-08T15:57:01.813Z,57.50
2022-11-08T15:59:36.099Z,57.65
2022-11-08T16:02:15.040Z,57.68
2022-11-08T16:04:46.091Z,57.76
2022-11-08T16:07:17.270Z,57.89
2022-11-08T16:09:48.584Z,57.95
2022-11-08T16:12:19.912Z,58.06
2022-11-08T16:14:52.175Z,58.23
2022-11-08T16:17:23.141Z,58.28
2022-11-08T16:19:54.334Z,58.45
2022-11-08T16:22:28.242Z,58.56
2022-11-08T16:24:59.761Z,58.70
2022-11-08T16:27:30.738Z,58.74
2022-11-08T16:30:02.111Z,58.87
2022-11-08T16:32:33.400Z,58.97
2022-11-08T16:35:04.538Z,58.97
2022-11-08T16:37:35.446Z,59.12
2022-11-08T16:40:14.180Z,59.20
2022-11-08T16:42:49.349Z,59.34
2022-11-08T16:45:27.984Z,59.38
2022-11-08T16:48:15.007Z,59.48
2022-11-08T16:50:46.610Z,59.47
2022-11-08T16:53:22.430Z,59.65
2022-11-08T16:55:53.270Z,59.63
2022-11-08T16:58:24.061Z,59.67
2022-11-08T17:00:55.768Z,59.73
2022-11-08T17:03:29.747Z,59.80
2022-11-08T17:06:01.151Z,59.85
2022-11-08T17:08:32.199Z,59.97
2022-11-08T17:11:03.544Z,60.11
2022-11-08T17:13:40.060Z,60.08
2022-11-08T17:16:14.438Z,60.19
2022-11-08T17:18:49.776Z,60.26
2022-11-08T17:24:21.550Z,60.41
2022-11-08T17:26:53.656Z,60.59
2022-11-08T17:29:24.576Z,60.67
2022-11-08T17:31:55.495Z,60.67
2022-11-08T17:34:29.621Z,60.70
2022-11-08T17:37:00.530Z,60.83
2022-11-08T17:39:32.372Z,60.89
2022-11-08T17:42:03.589Z,60.98
2022-11-08T17:44:34.497Z,61.04
2022-11-08T17:47:06.218Z,61.11
2022-11-08T17:49:42.801Z,61.23
2022-11-08T17:52:16.237Z,61.26
2022-11-08T17:54:52.640Z,61.21
2022-11-08T17:57:24.039Z,61.35
2022-11-08T17:59:54.850Z,61.46
2022-11-08T18:02:28.287Z,61.39
2022-11-08T18:04:59.426Z,61.42
2022-11-08T18:07:47.616Z,61.46
2022-11-08T18:10:18.662Z,61.64
2022-11-08T18:12:50.597Z,61.72
2022-11-08T18:15:22.275Z,61.75
2022-11-08T18:17:53.662Z,61.80
2022-11-08T18:20:25.192Z,61.84
2022-11-08T18:22:58.696Z,61.90
2022-11-08T18:25:31.166Z,61.90
2022-11-08T18:28:05.513Z,62.09
2022-11-08T18:31:08.075Z,62.17
2022-11-08T18:33:42.122Z,62.16
2022-11-08T18:36:16.811Z,62.32
2022-11-08T18:38:49.404Z,62.42
2022-11-08T18:41:26.262Z,62.55
2022-11-08T18:44:46.908Z,62.70
2022-11-08T18:47:18.224Z,62.70
2022-11-08T18:49:49.653Z,62.83
2022-11-08T18:52:20.902Z,62.93
2022-11-08T18:54:52.917Z,63.04
2022-11-08T18:57:25.416Z,63.20
2022-11-08T19:00:00.868Z,63.13
2022-11-08T19:02:42.746Z,63.41
2022-11-08T19:05:15.148Z,63.55
2022-11-08T19:07:46.223Z,63.57
2022-11-08T19:10:17.563Z,63.56
2022-11-08T19:12:49.325Z,63.79
2022-11-08T19:15:22.428Z,63.85
2022-11-08T19:17:54.083Z,64.03
2022-11-08T19:20:38.877Z,64.14
2022-11-08T19:23:09.988Z,64.17
2022-11-08T19:25:41.035Z,64.38
2022-11-08T19:28:12.228Z,64.43
2022-11-08T19:30:51.645Z,64.51
2022-11-08T19:33:25.265Z,64.67
2022-11-08T19:35:56.781Z,64.91
2022-11-08T19:38:28.562Z,65.08
2022-11-08T19:41:05.479Z,64.93
2022-11-08T19:43:38.835Z,65.16
2022-11-08T19:46:12.699Z,65.12
2022-11-08T19:48:45.683Z,65.33
2022-11-08T19:51:19.222Z,65.45
2022-11-08T19:53:50.868Z,65.27
2022-11-08T19:56:32.874Z,65.46
2022-11-08T19:59:09.891Z,65.79
2022-11-08T20:01:41.066Z,65.87
2022-11-08T20:04:14.545Z,66.00
2022-11-08T20:06:46.090Z,66.08
2022-11-08T20:09:19.972Z,66.18
2022-11-08T20:11:51.148Z,66.22
2022-11-08T20:14:22.217Z,66.37
2022-11-08T20:16:56.560Z,66.45
2022-11-08T20:19:31.286Z,66.49
2022-11-08T20:22:06.498Z,66.67
2022-11-08T20:24:36.355Z,66.76
2022-11-08T20:27:07.392Z,66.92
2022-11-08T20:29:38.589Z,66.88
2022-11-08T20:32:12.912Z,67.02
2022-11-08T20:34:45.998Z,66.88
2022-11-08T20:37:17.768Z,67.16
2022-11-08T20:39:49.527Z,67.27
2022-11-08T20:42:23.125Z,67.15
2022-11-08T20:44:54.423Z,67.20
2022-11-08T20:47:25.629Z,67.48
2022-11-08T20:49:57.373Z,67.54
2022-11-08T20:52:28.521Z,67.54
2022-11-08T20:55:04.125Z,67.56
2022-11-08T20:57:40.826Z,67.80
2022-11-08T21:00:15.849Z,67.67
2022-11-08T21:02:52.555Z,67.80
2022-11-08T21:05:24.362Z,67.83
2022-11-08T21:08:56.166Z,68.12
2022-11-08T21:10:56.332Z,67.88
2022-11-08T21:13:29.485Z,68.16
2022-11-08T21:16:26.787Z,68.03
2022-11-08T21:18:56.242Z,68.20
2022-11-08T21:21:27.566Z,68.30
2022-11-08T21:23:58.522Z,68.29
2022-11-08T21:26:29.381Z,68.19
2022-11-08T21:29:00.513Z,68.39
2022-11-08T21:31:31.860Z,68.42
2022-11-08T21:34:02.905Z,68.53
2022-11-08T21:36:34.055Z,68.52
2022-11-08T21:39:40.626Z,68.47
2022-11-08T21:42:14.034Z,68.67
2022-11-08T21:44:45.321Z,68.48
2022-11-08T21:47:16.362Z,68.58
2022-11-08T21:49:57.946Z,68.67
2022-11-08T21:52:28.922Z,68.70
2022-11-08T21:55:47.836Z,68.87
2022-11-08T21:58:22.323Z,68.94
2022-11-08T22:00:54.427Z,68.95
2022-11-08T22:03:25.290Z,69.20
2022-11-08T22:05:56.202Z,69.33
2022-11-08T22:08:27.041Z,69.34
2022-11-08T22:10:57.734Z,69.39
2022-11-08T22:13:28.442Z,69.34
2022-11-08T22:15:59.145Z,69.57
2022-11-08T22:18:58.827Z,69.54
2022-11-08T22:21:39.038Z,69.48
2022-11-08T22:24:11.733Z,69.73
2022-11-08T22:26:42.977Z,69.65
2022-11-08T22:29:14.258Z,69.84
2022-11-08T22:31:45.859Z,69.78
2022-11-08T22:34:16.748Z,69.85
2022-11-08T22:36:47.838Z,70.05
2022-11-08T22:39:19.996Z,70.00
2022-11-08T22:41:52.281Z,69.98
2022-11-08T22:44:23.220Z,70.01
2022-11-08T22:46:53.968Z,70.07
2022-11-08T22:49:25.439Z,70.18
2022-11-08T22:51:56.201Z,70.13
2022-11-08T22:54:28.309Z,70.36
2022-11-08T22:56:59.068Z,70.16
2022-11-08T22:59:29.876Z,70.17
2022-11-08T23:02:00.615Z,70.25
2022-11-08T23:04:33.622Z,70.32
2022-11-08T23:07:04.361Z,70.36
2022-11-08T23:09:35.087Z,70.34
2022-11-08T23:12:24.284Z,70.41
2022-11-08T23:15:13.165Z,70.40
2022-11-08T23:17:44.006Z,70.47
2022-11-08T23:20:32.434Z,70.33
2022-11-08T23:23:20.766Z,70.52
2022-11-08T23:25:56.013Z,70.70
2022-11-08T23:28:45.696Z,70.71
2022-11-08T23:31:30.533Z,70.75
2022-11-08T23:34:01.688Z,70.77
2022-11-08T23:36:32.485Z,70.81
2022-11-08T23:39:03.398Z,70.95
2022-11-08T23:41:52.079Z,70.89
2022-11-08T23:44:26.822Z,71.01
2022-11-08T23:46:59.380Z,70.98
2022-11-08T23:49:30.613Z,71.04
2022-11-08T23:52:01.640Z,70.92
2022-11-08T23:54:32.980Z,71.00
2022-11-08T23:57:03.922Z,70.94
2022-11-08T23:59:35.515Z,70.85
